createdAt,value
2022-12-25T00:00:51.162Z,3.74
2022-12-25T00:02:57.678Z,3.76
2022-12-25T00:05:04.573Z,3.74
2022-12-25T00:07:10.539Z,3.75
2022-12-25T00:09:16.796Z,3.77
2022-12-25T00:11:25.096Z,3.78
2022-12-25T00:13:31.472Z,3.73
2022-12-25T00:15:40.417Z,3.68
2022-12-25T00:17:46.799Z,3.74
2022-12-25T00:19:57.327Z,3.78
2022-12-25T00:22:02.923Z,3.8
2022-12-25T00:24:09.666Z,3.82
2022-12-25T00:26:16.485Z,3.81
2022-12-25T00:28:22.747Z,3.79
2022-12-25T00:30:28.956Z,3.78
2022-12-25T00:32:36.810Z,3.81
2022-12-25T00:34:42.081Z,3.81
2022-12-25T00:36:50.192Z,3.83
2022-12-25T00:38:59.698Z,3.85
2022-12-25T00:41:09.507Z,3.78
2022-12-25T00:43:14.930Z,3.78
2022-12-25T00:45:20.288Z,3.81
2022-12-25T00:47:27.126Z,3.79
2022-12-25T00:49:34.757Z,3.81
2022-12-25T00:51:41.569Z,3.8
2022-12-25T00:53:50.329Z,3.81
2022-12-25T00:55:55.778Z,3.76
2022-12-25T00:58:01.054Z,3.76
2022-12-25T01:00:07.007Z,3.8
2022-12-25T01:02:15.509Z,3.73
2022-12-25T01:04:21.748Z,3.76
2022-12-25T01:06:27.329Z,3.77
2022-12-25T01:08:36.396Z,3.77
2022-12-25T01:10:43.498Z,3.76
2022-12-25T01:12:50.397Z,3.72
2022-12-25T01:14:58.038Z,3.72
2022-12-25T01:17:03.563Z,3.73
2022-12-25T01:19:12.279Z,3.72
2022-12-25T01:21:17.523Z,3.74
2022-12-25T01:23:23.182Z,3.72
2022-12-25T01:25:28.613Z,3.71
2022-12-25T01:27:35.019Z,3.73
2022-12-25T01:29:40.106Z,3.71
2022-12-25T01:31:46.395Z,3.66
2022-12-25T01:36:19.266Z,3.7
2022-12-25T01:38:24.817Z,3.66
2022-12-25T01:40:29.999Z,3.65
2022-12-25T01:42:37.808Z,3.68
2022-12-25T01:44:43.110Z,3.67
2022-12-25T01:46:52.451Z,3.61
2022-12-25T01:49:03.445Z,3.66
2022-12-25T01:51:11.376Z,3.66
2022-12-25T01:55:45.466Z,3.66
2022-12-25T01:57:54.236Z,3.66
2022-12-25T02:00:01.971Z,3.68
2022-12-25T02:02:08.588Z,3.7
2022-12-25T02:04:24.102Z,3.65
2022-12-25T02:06:38.198Z,3.64
2022-12-25T02:08:43.973Z,3.62
2022-12-25T02:10:49.401Z,3.59
2022-12-25T02:12:55.497Z,3.59
2022-12-25T02:15:05.144Z,3.62
2022-12-25T02:17:13.529Z,3.58
2022-12-25T02:19:19.557Z,3.6
2022-12-25T02:21:24.981Z,3.63
2022-12-25T02:23:30.459Z,3.63
2022-12-25T02:25:36.217Z,3.62
2022-12-25T02:27:47.308Z,3.63
2022-12-25T02:29:54.447Z,3.65
2022-12-25T02:32:05.666Z,3.66
2022-12-25T02:34:11.234Z,3.64
2022-12-25T02:36:18.874Z,3.65
2022-12-25T02:38:24.512Z,3.62
2022-12-25T02:40:30.118Z,3.53
2022-12-25T02:42:35.692Z,3.56
2022-12-25T02:44:41.160Z,3.55
2022-12-25T02:46:47.079Z,3.55
2022-12-25T02:48:52.620Z,3.57
2022-12-25T02:51:00.419Z,3.58
2022-12-25T02:53:05.615Z,3.64
2022-12-25T02:55:14.384Z,3.63
2022-12-25T02:57:19.946Z,3.6
2022-12-25T02:59:37.278Z,3.64
2022-12-25T03:01:43.105Z,3.67
2022-12-25T03:03:49.459Z,3.65
2022-12-25T03:05:56.724Z,3.68
2022-12-25T03:08:05.384Z,3.67
2022-12-25T03:10:10.780Z,3.64
2022-12-25T03:12:16.294Z,3.68
2022-12-25T03:14:21.668Z,3.65
2022-12-25T03:16:32.475Z,3.66
2022-12-25T03:18:38.363Z,3.64
2022-12-25T03:20:44.955Z,3.59
2022-12-25T03:22:50.232Z,3.61
2022-12-25T03:24:55.845Z,3.62
2022-12-25T03:27:01.532Z,3.6
2022-12-25T03:29:07.811Z,3.6
2022-12-25T03:31:17.578Z,3.63
2022-12-25T03:33:44.281Z,3.65
2022-12-25T03:35:50.661Z,3.61
2022-12-25T03:37:57.963Z,3.64
2022-12-25T03:40:04.340Z,3.61
2022-12-25T03:42:11.597Z,3.6
2022-12-25T03:44:16.950Z,3.6
2022-12-25T03:46:22.550Z,3.59
2022-12-25T03:50:54.592Z,3.6
2022-12-25T03:53:05.399Z,3.64
2022-12-25T03:55:15.322Z,3.64
2022-12-25T03:57:20.464Z,3.63
2022-12-25T03:59:30.531Z,3.64
2022-12-25T04:01:40.326Z,3.67
2022-12-25T04:06:17.898Z,3.65
2022-12-25T04:08:26.444Z,3.64
2022-12-25T04:10:32.821Z,3.67
2022-12-25T04:12:46.938Z,3.66
2022-12-25T04:14:52.329Z,3.62
2022-12-25T04:16:57.713Z,3.61
2022-12-25T04:19:05.326Z,3.62
2022-12-25T04:23:43.215Z,3.66
2022-12-25T04:28:42.385Z,3.62
2022-12-25T04:30:53.542Z,3.66
2022-12-25T04:49:04.266Z,3.65
2022-12-25T04:54:02.750Z,3.65
2022-12-25T04:56:08.516Z,3.69
2022-12-25T04:58:16.781Z,3.67
2022-12-25T05:00:24.092Z,3.64
2022-12-25T05:02:34.828Z,3.67
2022-12-25T05:04:42.543Z,3.71
2022-12-25T05:06:53.426Z,3.73
2022-12-25T05:08:58.929Z,3.71
2022-12-25T05:11:05.178Z,3.78
2022-12-25T05:13:15.504Z,3.83
2022-12-25T05:15:21.191Z,3.81
2022-12-25T05:17:29.688Z,3.82
2022-12-25T05:19:38.159Z,3.8
2022-12-25T05:21:43.403Z,3.78
2022-12-25T05:23:51.794Z,3.73
2022-12-25T05:26:00.325Z,3.78
2022-12-25T05:28:06.692Z,3.78
2022-12-25T05:30:15.443Z,3.76
2022-12-25T05:32:20.981Z,3.79
2022-12-25T05:34:26.552Z,3.81
2022-12-25T05:36:32.248Z,3.83
2022-12-25T05:38:37.630Z,3.83
2022-12-25T05:40:43.056Z,3.81
2022-12-25T05:42:49.345Z,3.87
2022-12-25T05:44:56.016Z,3.9
2022-12-25T05:47:01.346Z,3.91
2022-12-25T05:49:06.932Z,3.89
2022-12-25T05:51:12.748Z,3.92
2022-12-25T05:53:18.473Z,3.93
2022-12-25T05:55:24.815Z,3.94
2022-12-25T05:57:30.193Z,3.95
2022-12-25T05:59:35.859Z,3.95
2022-12-25T06:01:41.727Z,3.92
2022-12-25T06:03:48.634Z,3.92
2022-12-25T06:05:54.492Z,3.92
2022-12-25T06:08:00.174Z,3.93
2022-12-25T06:10:11.681Z,3.92
2022-12-25T06:12:17.180Z,3.92
2022-12-25T06:14:25.724Z,3.93
2022-12-25T06:16:38.069Z,3.9
2022-12-25T06:18:44.348Z,3.91
2022-12-25T06:20:53.446Z,3.91
2022-12-25T06:25:25.903Z,3.87
2022-12-25T06:29:59.508Z,3.86
2022-12-25T06:32:07.317Z,3.89
2022-12-25T06:36:40.501Z,3.91
2022-12-25T06:38:47.168Z,3.92
2022-12-25T06:40:52.388Z,3.92
2022-12-25T06:42:57.977Z,3.93
2022-12-25T06:45:04.229Z,3.94
2022-12-25T06:47:09.445Z,3.95
2022-12-25T06:49:14.620Z,3.98
2022-12-25T06:51:21.028Z,3.99
2022-12-25T06:53:26.682Z,3.99
2022-12-25T06:55:42.900Z,4.03
2022-12-25T06:57:49.427Z,4.03
2022-12-25T06:59:55.754Z,4.04
2022-12-25T07:02:01.489Z,4.02
2022-12-25T07:04:07.464Z,3.97
2022-12-25T07:06:12.701Z,3.98
2022-12-25T07:08:21.766Z,4.02
2022-12-25T07:10:27.775Z,3.99
2022-12-25T07:12:33.759Z,3.96
2022-12-25T07:14:39.642Z,3.93
2022-12-25T07:16:47.631Z,3.98
2022-12-25T07:18:54.561Z,4.03
2022-12-25T07:21:00.175Z,4.06
2022-12-25T07:23:05.735Z,4.11
2022-12-25T07:25:11.009Z,4.15
2022-12-25T07:27:16.591Z,4.15
2022-12-25T07:29:22.465Z,4.16
2022-12-25T07:31:27.977Z,4.17
2022-12-25T07:33:33.563Z,4.24
2022-12-25T07:35:39.765Z,4.3
2022-12-25T07:37:45.630Z,4.32
2022-12-25T07:39:54.478Z,4.3
2022-12-25T07:42:00.572Z,4.36
2022-12-25T07:44:07.069Z,4.4
2022-12-25T07:46:14.249Z,4.46
2022-12-25T07:48:20.443Z,4.5
2022-12-25T07:50:29.015Z,4.55
2022-12-25T07:52:39.652Z,4.58
2022-12-25T07:54:49.647Z,4.6
2022-12-25T07:56:56.343Z,4.63
2022-12-25T07:59:06.763Z,4.68
2022-12-25T08:01:17.961Z,4.7
2022-12-25T08:03:25.869Z,4.73
2022-12-25T08:05:37.121Z,4.72
2022-12-25T08:07:43.205Z,4.8
2022-12-25T08:09:57.990Z,4.81
2022-12-25T08:12:10.325Z,4.83
2022-12-25T08:14:16.506Z,4.89
2022-12-25T08:16:22.671Z,4.91
2022-12-25T08:18:30.038Z,4.97
2022-12-25T08:20:36.964Z,5.03
2022-12-25T08:22:43.858Z,5.07
2022-12-25T08:24:51.170Z,5.06
2022-12-25T08:29:24.461Z,5.12
2022-12-25T08:31:30.550Z,5.13
2022-12-25T08:33:49.429Z,5.13
2022-12-25T08:35:56.035Z,5.1
2022-12-25T08:38:02.198Z,5.12
2022-12-25T08:40:08.809Z,5.16
2022-12-25T08:42:15.000Z,5.14
2022-12-25T08:44:22.042Z,5.17
2022-12-25T08:46:28.382Z,5.2
2022-12-25T08:48:35.351Z,5.25
2022-12-25T08:50:41.759Z,5.22
2022-12-25T08:52:48.060Z,5.23
2022-12-25T08:54:54.378Z,5.19
2022-12-25T08:57:02.757Z,5.22
2022-12-25T08:59:09.418Z,5.19
2022-12-25T09:01:15.650Z,5.23
2022-12-25T09:03:22.707Z,5.23
2022-12-25T09:05:29.180Z,5.22
2022-12-25T09:07:35.503Z,5.3
2022-12-25T09:09:41.872Z,5.33
2022-12-25T09:11:48.047Z,5.4
2022-12-25T09:13:54.005Z,5.42
2022-12-25T09:16:01.925Z,5.39
2022-12-25T09:18:07.967Z,5.37
2022-12-25T09:20:14.108Z,5.34
2022-12-25T09:22:23.368Z,5.32
2022-12-25T09:24:29.332Z,5.35
2022-12-25T09:26:35.391Z,5.36
2022-12-25T09:28:46.782Z,5.36
2022-12-25T09:30:57.650Z,5.43
2022-12-25T09:33:03.941Z,5.46
2022-12-25T09:35:10.563Z,5.49
2022-12-25T09:37:16.641Z,5.56
2022-12-25T09:39:23.052Z,5.56
2022-12-25T09:41:29.366Z,5.63
2022-12-25T09:43:35.810Z,5.6
2022-12-25T09:48:06.267Z,5.49
2022-12-25T09:50:12.371Z,5.55
2022-12-25T09:52:19.000Z,5.55
2022-12-25T09:54:25.358Z,5.57
2022-12-25T09:56:32.271Z,5.66
2022-12-25T09:58:38.729Z,5.67
2022-12-25T10:03:13.850Z,5.69
2022-12-25T10:07:53.772Z,5.73
2022-12-25T10:10:01.299Z,5.78
2022-12-25T10:12:07.920Z,5.81
2022-12-25T10:14:17.255Z,5.87
2022-12-25T10:16:24.060Z,5.92
2022-12-25T10:18:30.932Z,5.95
2022-12-25T10:20:39.978Z,5.9
2022-12-25T10:22:46.413Z,5.94
2022-12-25T10:24:52.947Z,5.99
2022-12-25T10:26:59.371Z,5.92
2022-12-25T10:29:05.490Z,5.86
2022-12-25T10:31:12.130Z,5.83
2022-12-25T10:33:18.685Z,5.92
2022-12-25T10:35:24.675Z,5.98
2022-12-25T10:37:31.200Z,6.01
2022-12-25T10:39:42.395Z,6.03
2022-12-25T10:41:52.246Z,6
2022-12-25T10:43:58.715Z,5.94
2022-12-25T10:46:05.997Z,5.91
2022-12-25T10:48:13.768Z,5.91
2022-12-25T10:50:20.364Z,5.92
2022-12-25T10:52:26.894Z,5.95
2022-12-25T10:54:34.002Z,5.92
2022-12-25T10:56:41.029Z,5.92
2022-12-25T10:58:51.542Z,5.98
2022-12-25T11:00:58.415Z,5.92
2022-12-25T11:03:06.269Z,6.03
2022-12-25T11:05:14.175Z,6.12
2022-12-25T11:07:20.698Z,6.06
2022-12-25T11:09:27.005Z,6.12
2022-12-25T11:11:33.701Z,6.15
2022-12-25T11:13:40.837Z,6.08
2022-12-25T11:15:48.070Z,6.15
2022-12-25T11:17:54.727Z,6.15
2022-12-25T11:20:01.240Z,6.19
2022-12-25T11:22:08.352Z,6.22
2022-12-25T11:24:16.176Z,6.06
2022-12-25T11:26:22.999Z,6.06
2022-12-25T11:28:29.283Z,6.03
2022-12-25T11:30:36.776Z,5.96
2022-12-25T11:32:47.290Z,5.92
2022-12-25T11:34:54.020Z,5.9
2022-12-25T11:37:00.565Z,5.97
2022-12-25T11:39:07.161Z,5.91
2022-12-25T11:41:13.816Z,5.99
2022-12-25T11:43:21.472Z,6.04
2022-12-25T11:45:27.931Z,6.09
2022-12-25T11:47:34.250Z,6.09
2022-12-25T11:49:41.219Z,6.16
2022-12-25T11:52:04.013Z,6.21
2022-12-25T11:54:10.438Z,6.28
2022-12-25T11:56:17.416Z,6.34
2022-12-25T11:58:23.777Z,6.34
2022-12-25T12:00:32.807Z,6.33
2022-12-25T12:02:39.380Z,6.39
2022-12-25T12:04:54.526Z,6.47
2022-12-25T12:07:00.993Z,6.49
2022-12-25T12:09:08.347Z,6.5
2022-12-25T12:11:14.756Z,6.5
2022-12-25T12:13:23.212Z,6.51
2022-12-25T12:15:29.566Z,6.52
2022-12-25T12:17:35.907Z,6.44
2022-12-25T12:19:43.489Z,6.35
2022-12-25T12:21:49.765Z,6.41
2022-12-25T12:23:56.226Z,6.5
2022-12-25T12:26:02.800Z,6.45
2022-12-25T12:28:09.982Z,6.42
2022-12-25T12:30:17.376Z,6.48
2022-12-25T12:32:24.270Z,6.41
2022-12-25T12:34:30.653Z,6.36
2022-12-25T12:36:37.115Z,6.35
2022-12-25T12:38:43.613Z,6.4
2022-12-25T12:40:50.619Z,6.39
2022-12-25T12:42:56.783Z,6.39
2022-12-25T12:45:03.270Z,6.42
2022-12-25T12:47:09.420Z,6.51
2022-12-25T12:49:16.519Z,6.55
2022-12-25T12:51:23.183Z,6.51
2022-12-25T12:53:29.284Z,6.41
2022-12-25T12:55:35.621Z,6.43
2022-12-25T12:57:41.626Z,6.5
2022-12-25T12:59:47.878Z,6.45
2022-12-25T13:01:54.136Z,6.42
2022-12-25T13:04:01.490Z,6.4
2022-12-25T13:06:07.568Z,6.42
2022-12-25T13:08:15.056Z,6.37
2022-12-25T13:10:21.564Z,6.35
2022-12-25T13:12:27.590Z,6.4
2022-12-25T13:14:34.013Z,6.42
2022-12-25T13:16:40.388Z,6.42
2022-12-25T13:18:46.747Z,6.44
2022-12-25T13:20:52.752Z,6.5
2022-12-25T13:22:59.218Z,6.51
2022-12-25T13:25:10.293Z,6.5
2022-12-25T13:27:48.320Z,6.57
2022-12-25T13:29:54.681Z,6.47
2022-12-25T13:32:16.286Z,6.46
2022-12-25T13:34:53.798Z,6.47
2022-12-25T13:37:01.039Z,6.4
2022-12-25T13:39:07.223Z,6.34
2022-12-25T13:41:13.442Z,6.28
2022-12-25T13:43:20.455Z,6.32
2022-12-25T13:45:26.940Z,6.33
2022-12-25T13:47:34.014Z,6.29
2022-12-25T13:49:40.570Z,6.25
2022-12-25T13:51:50.444Z,6.25
2022-12-25T13:53:56.931Z,6.22
2022-12-25T13:56:03.221Z,6.17
2022-12-25T13:58:10.104Z,6.08
2022-12-25T14:02:37.452Z,6.04
2022-12-25T14:04:47.439Z,6.03
2022-12-25T14:06:55.052Z,6.04
2022-12-25T14:09:01.437Z,6.03
2022-12-25T14:11:08.047Z,6.01
2022-12-25T14:13:14.011Z,6.01
2022-12-25T14:15:20.435Z,5.95
2022-12-25T14:17:26.629Z,5.93
2022-12-25T14:19:32.964Z,5.91
2022-12-25T14:21:39.264Z,5.89
2022-12-25T14:23:46.507Z,5.86
2022-12-25T14:25:53.415Z,5.87
2022-12-25T14:28:14.290Z,5.84
2022-12-25T14:30:23.532Z,5.8
2022-12-25T14:32:30.069Z,5.8
2022-12-25T14:34:36.419Z,5.8
2022-12-25T14:36:43.722Z,5.79
2022-12-25T14:38:51.246Z,5.78
2022-12-25T14:41:01.200Z,5.75
2022-12-25T14:43:07.799Z,5.7
2022-12-25T14:45:16.155Z,5.7
2022-12-25T14:47:23.402Z,5.71
2022-12-25T14:49:29.522Z,5.73
2022-12-25T14:51:36.179Z,5.74
2022-12-25T14:53:42.652Z,5.75
2022-12-25T14:58:59.928Z,5.71
2022-12-25T15:01:07.434Z,5.67
2022-12-25T15:03:14.519Z,5.71
2022-12-25T15:05:21.743Z,5.71
2022-12-25T15:07:28.537Z,5.74
2022-12-25T15:09:37.961Z,5.71
2022-12-25T15:11:47.340Z,5.72
2022-12-25T15:13:54.129Z,5.71
2022-12-25T15:16:00.749Z,5.72
2022-12-25T15:18:08.004Z,5.72
2022-12-25T15:20:14.435Z,5.71
2022-12-25T15:22:20.849Z,5.64
2022-12-25T15:24:27.147Z,5.65
2022-12-25T15:26:33.786Z,5.67
2022-12-25T15:28:39.958Z,5.61
2022-12-25T15:30:46.831Z,5.52
2022-12-25T15:32:55.398Z,5.51
2022-12-25T15:35:01.874Z,5.58
2022-12-25T15:37:11.529Z,5.54
2022-12-25T15:39:17.789Z,5.52
2022-12-25T15:41:24.565Z,5.55
2022-12-25T15:43:46.453Z,5.55
2022-12-25T15:45:54.104Z,5.53
2022-12-25T15:48:01.282Z,5.53
2022-12-25T15:50:08.287Z,5.5
2022-12-25T15:52:14.893Z,5.48
2022-12-25T15:54:21.743Z,5.48
2022-12-25T15:56:28.510Z,5.45
2022-12-25T15:58:52.140Z,5.47
2022-12-25T16:01:03.871Z,5.46
2022-12-25T16:03:10.298Z,5.41
2022-12-25T16:05:20.531Z,5.42
2022-12-25T16:07:29.114Z,5.41
2022-12-25T16:09:35.593Z,5.38
2022-12-25T16:11:42.354Z,5.38
2022-12-25T16:13:48.533Z,5.36
2022-12-25T16:15:56.246Z,5.36
2022-12-25T16:18:03.328Z,5.32
2022-12-25T16:20:10.107Z,5.31
2022-12-25T16:22:16.713Z,5.31
2022-12-25T16:24:24.496Z,5.31
2022-12-25T16:26:31.286Z,5.33
2022-12-25T16:28:37.869Z,5.3
2022-12-25T16:30:44.617Z,5.3
2022-12-25T16:32:52.577Z,5.31
2022-12-25T16:34:58.639Z,5.29
2022-12-25T16:37:05.002Z,5.28
2022-12-25T16:39:15.067Z,5.29
2022-12-25T16:41:21.153Z,5.26
2022-12-25T16:43:27.362Z,5.22
2022-12-25T16:45:34.471Z,5.23
2022-12-25T16:47:41.957Z,5.22
2022-12-25T16:49:50.583Z,5.24
2022-12-25T16:51:58.828Z,5.25
2022-12-25T16:54:06.148Z,5.22
2022-12-25T16:56:15.636Z,5.18
2022-12-25T16:58:23.295Z,5.15
2022-12-25T17:00:31.218Z,5.16
2022-12-25T17:02:39.433Z,5.17
2022-12-25T17:04:47.123Z,5.12
2022-12-25T17:06:55.359Z,5.1
2022-12-25T17:09:04.712Z,5.11
2022-12-25T17:11:12.487Z,5.03
2022-12-25T17:13:19.876Z,5.01
2022-12-25T17:15:27.401Z,4.99
2022-12-25T17:17:34.222Z,4.98
2022-12-25T17:19:41.178Z,4.95
2022-12-25T17:22:01.316Z,4.95
2022-12-25T17:24:07.642Z,4.89
2022-12-25T17:26:27.361Z,4.87
2022-12-25T17:28:37.823Z,4.82
2022-12-25T17:30:49.550Z,4.79
2022-12-25T17:32:58.464Z,4.78
2022-12-25T17:35:13.867Z,4.81
2022-12-25T17:37:20.373Z,4.78
2022-12-25T17:39:26.607Z,4.75
2022-12-25T17:41:33.162Z,4.7
2022-12-25T17:43:39.755Z,4.69
2022-12-25T17:45:46.656Z,4.69
2022-12-25T17:47:53.943Z,4.62
2022-12-25T17:50:00.759Z,4.62
2022-12-25T17:52:10.399Z,4.59
2022-12-25T17:54:17.447Z,4.6
2022-12-25T17:56:36.215Z,4.6
2022-12-25T17:58:42.841Z,4.55
2022-12-25T18:00:50.036Z,4.53
2022-12-25T18:02:59.266Z,4.54
2022-12-25T18:05:16.264Z,4.55
2022-12-25T18:07:22.735Z,4.55
2022-12-25T18:09:29.617Z,4.47
2022-12-25T18:11:36.908Z,4.44
2022-12-25T18:13:43.712Z,4.43
2022-12-25T18:15:50.473Z,4.41
2022-12-25T18:17:58.644Z,4.42
2022-12-25T18:20:06.264Z,4.39
2022-12-25T18:22:13.481Z,4.35
2022-12-25T18:24:21.493Z,4.38
2022-12-25T18:26:28.184Z,4.34
2022-12-25T18:28:34.920Z,4.32
2022-12-25T18:30:42.374Z,4.31
2022-12-25T18:32:49.569Z,4.28
2022-12-25T18:34:56.176Z,4.25
2022-12-25T18:37:04.358Z,4.21
2022-12-25T18:39:11.466Z,4.21
2022-12-25T18:41:19.751Z,4.15
2022-12-25T18:43:51.232Z,4.13
2022-12-25T18:46:04.072Z,4.12
2022-12-25T18:48:11.614Z,4.11
2022-12-25T18:50:21.203Z,4.11
2022-12-25T18:52:47.098Z,4.05
2022-12-25T18:55:01.139Z,4.03
2022-12-25T18:57:11.657Z,3.98
2022-12-25T18:59:18.671Z,3.98
2022-12-25T19:01:26.617Z,3.98
2022-12-25T19:03:38.808Z,3.96
2022-12-25T19:05:45.767Z,3.98
2022-12-25T19:07:52.895Z,3.92
2022-12-25T19:10:00.060Z,3.95
2022-12-25T19:12:07.667Z,3.94
2022-12-25T19:14:14.784Z,3.91
2022-12-25T19:16:23.478Z,3.91
2022-12-25T19:18:30.406Z,3.84
2022-12-25T19:20:37.145Z,3.78
2022-12-25T19:22:43.634Z,3.77
2022-12-25T19:24:51.970Z,3.75
2022-12-25T19:27:00.275Z,3.73
2022-12-25T19:29:07.652Z,3.73
2022-12-25T19:31:15.960Z,3.69
2022-12-25T19:33:30.865Z,3.65
2022-12-25T19:35:37.883Z,3.67
2022-12-25T19:37:45.811Z,3.67
2022-12-25T19:39:53.333Z,3.63
2022-12-25T19:42:01.990Z,3.63
2022-12-25T19:44:09.117Z,3.59
2022-12-25T19:46:17.651Z,3.61
2022-12-25T19:48:25.196Z,3.62
2022-12-25T19:50:34.006Z,3.63
2022-12-25T19:52:45.201Z,3.62
2022-12-25T19:54:52.296Z,3.55
2022-12-25T19:57:01.143Z,3.53
2022-12-25T19:59:11.943Z,3.54
2022-12-25T20:01:26.001Z,3.57
2022-12-25T20:03:45.481Z,3.56
2022-12-25T20:05:54.562Z,3.57
2022-12-25T20:08:01.793Z,3.55
2022-12-25T20:10:08.886Z,3.53
2022-12-25T20:12:16.845Z,3.52
2022-12-25T20:14:29.023Z,3.5
2022-12-25T20:16:46.507Z,3.43
2022-12-25T20:19:05.815Z,3.45
2022-12-25T20:21:12.696Z,3.46
2022-12-25T20:23:20.010Z,3.4
2022-12-25T20:25:29.380Z,3.42
2022-12-25T20:27:36.394Z,3.39
2022-12-25T20:29:43.649Z,3.39
2022-12-25T20:31:52.029Z,3.4
2022-12-25T20:33:59.706Z,3.35
2022-12-25T20:36:06.688Z,3.32
2022-12-25T20:38:14.435Z,3.31
2022-12-25T20:40:22.598Z,3.35
2022-12-25T20:42:29.641Z,3.32
2022-12-25T20:44:35.973Z,3.29
2022-12-25T20:46:42.914Z,3.29
2022-12-25T20:48:49.787Z,3.32
2022-12-25T20:50:57.044Z,3.29
2022-12-25T20:53:04.656Z,3.3
2022-12-25T20:55:11.164Z,3.31
2022-12-25T20:57:17.612Z,3.34
2022-12-25T20:59:24.845Z,3.32
2022-12-25T21:01:41.503Z,3.36
2022-12-25T21:03:48.571Z,3.34
2022-12-25T21:05:56.734Z,3.34
2022-12-25T21:08:04.177Z,3.32
2022-12-25T21:10:10.676Z,3.33
2022-12-25T21:12:17.099Z,3.31
2022-12-25T21:14:23.661Z,3.32
2022-12-25T21:16:30.174Z,3.35
2022-12-25T21:18:36.854Z,3.37
2022-12-25T21:20:43.183Z,3.36
2022-12-25T21:22:49.923Z,3.35
2022-12-25T21:24:56.287Z,3.36
2022-12-25T21:27:02.780Z,3.29
2022-12-25T21:29:09.173Z,3.32
2022-12-25T21:31:15.862Z,3.32
2022-12-25T21:33:22.814Z,3.3
2022-12-25T21:35:29.099Z,3.2
2022-12-25T21:37:35.402Z,3.22
2022-12-25T21:39:41.586Z,3.23
2022-12-25T21:41:47.925Z,3.22
2022-12-25T21:43:54.061Z,3.23
2022-12-25T21:46:00.519Z,3.28
2022-12-25T21:48:07.132Z,3.3
2022-12-25T21:50:14.201Z,3.31
2022-12-25T21:52:20.373Z,3.29
2022-12-25T21:54:26.525Z,3.28
2022-12-25T21:56:35.215Z,3.26
2022-12-25T21:58:49.481Z,3.28
2022-12-25T22:00:55.775Z,3.26
2022-12-25T22:03:02.218Z,3.23
2022-12-25T22:05:09.679Z,3.22
2022-12-25T22:07:16.018Z,3.24
2022-12-25T22:09:22.776Z,3.2
2022-12-25T22:11:29.289Z,3.19
2022-12-25T22:13:35.035Z,3.19
2022-12-25T22:15:41.464Z,3.21
2022-12-25T22:17:47.938Z,3.2
2022-12-25T22:19:53.719Z,3.18
2022-12-25T22:21:59.804Z,3.18
2022-12-25T22:24:06.032Z,3.18
2022-12-25T22:26:15.945Z,3.17
2022-12-25T22:28:26.279Z,3.13
2022-12-25T22:30:32.810Z,3.07
2022-12-25T22:32:38.689Z,3.03
2022-12-25T22:34:44.092Z,3.04
2022-12-25T22:36:49.416Z,3.04
2022-12-25T22:38:55.294Z,3.05
2022-12-25T22:41:01.325Z,3.07
2022-12-25T22:43:07.180Z,3.11
2022-12-25T22:45:13.404Z,3.12
2022-12-25T22:47:19.807Z,3.15
2022-12-25T22:49:25.964Z,3.16
2022-12-25T22:51:31.823Z,3.19
2022-12-25T22:53:37.381Z,3.17
2022-12-25T22:55:43.512Z,3.17
2022-12-25T22:57:49.461Z,3.17
2022-12-25T22:59:55.188Z,3.21
2022-12-25T23:02:01.668Z,3.23
2022-12-25T23:04:08.357Z,3.23
2022-12-25T23:06:14.758Z,3.26
2022-12-25T23:08:20.899Z,3.27
2022-12-25T23:10:26.671Z,3.29
2022-12-25T23:12:32.572Z,3.25
2022-12-25T23:14:38.020Z,3.24
2022-12-25T23:16:44.113Z,3.26
2022-12-25T23:18:49.407Z,3.27
2022-12-25T23:20:54.780Z,3.28
2022-12-25T23:23:00.527Z,3.28
2022-12-25T23:25:06.341Z,3.28
2022-12-25T23:27:11.615Z,3.29
2022-12-25T23:29:17.063Z,3.32
2022-12-25T23:31:22.487Z,3.33
2022-12-25T23:33:28.933Z,3.35
2022-12-25T23:35:34.421Z,3.4
2022-12-25T23:37:39.858Z,3.41
2022-12-25T23:39:45.500Z,3.46
2022-12-25T23:41:50.700Z,3.47
2022-12-25T23:43:56.173Z,3.46
2022-12-25T23:46:01.924Z,3.46
2022-12-25T23:48:07.716Z,3.43
2022-12-25T23:50:12.860Z,3.44
2022-12-25T23:52:18.483Z,3.47
2022-12-25T23:54:24.085Z,3.47
2022-12-25T23:56:29.447Z,3.48
2022-12-25T23:58:34.580Z,3.5
